sensor_id;sensor_type;location;lat;lon;timestamp;temperature;humidity
64396;DHT22;50717;53.360;6.290;2023-05-07T00:02:22;12.60;99.90
64396;DHT22;50717;53.360;6.290;2023-05-07T00:04:48;12.80;99.90
64396;DHT22;50717;53.360;6.290;2023-05-07T00:07:14;11.90;99.90
64396;DHT22;50717;53.360;6.290;2023-05-07T00:09:40;11.80;99.90
64396;DHT22;50717;53.360;6.290;2023-05-07T00:12:06;11.70;99.90
64396;DHT22;50717;53.360;6.290;2023-05-07T00:14:31;12.50;99.90
64396;DHT22;50717;53.360;6.290;2023-05-07T00:16:57;12.20;99.90
64396;DHT22;50717;53.360;6.290;2023-05-07T00:19:23;11.60;99.90
64396;DHT22;50717;53.360;6.290;2023-05-07T00:21:48;11.90;99.90
64396;DHT22;50717;53.360;6.290;2023-05-07T00:24:14;11.70;99.90
64396;DHT22;50717;53.360;6.290;2023-05-07T00:26:40;11.80;99.90
64396;DHT22;50717;53.360;6.290;2023-05-07T00:29:05;11.60;99.90
64396;DHT22;50717;53.360;6.290;2023-05-07T00:31:31;11.90;99.90
64396;DHT22;50717;53.360;6.290;2023-05-07T00:33:57;12.50;99.90
64396;DHT22;50717;53.360;6.290;2023-05-07T00:36:22;12.30;99.90
64396;DHT22;50717;53.360;6.290;2023-05-07T00:38:48;11.80;99.90
64396;DHT22;50717;53.360;6.290;2023-05-07T00:41:14;11.40;99.90
64396;DHT22;50717;53.360;6.290;2023-05-07T00:43:40;12.30;99.90
64396;DHT22;50717;53.360;6.290;2023-05-07T00:46:06;11.60;99.90
64396;DHT22;50717;53.360;6.290;2023-05-07T00:48:31;12.20;99.90
64396;DHT22;50717;53.360;6.290;2023-05-07T00:50:57;12.40;99.90
64396;DHT22;50717;53.360;6.290;2023-05-07T00:53:23;11.50;99.90
64396;DHT22;50717;53.360;6.290;2023-05-07T00:55:49;11.70;99.90
64396;DHT22;50717;53.360;6.290;2023-05-07T00:58:15;11.50;99.90
64396;DHT22;50717;53.360;6.290;2023-05-07T01:00:41;11.40;99.90
64396;DHT22;50717;53.360;6.290;2023-05-07T01:03:07;11.90;99.90
64396;DHT22;50717;53.360;6.290;2023-05-07T01:05:34;11.50;99.90
64396;DHT22;50717;53.360;6.290;2023-05-07T01:08:01;11.70;99.90
64396;DHT22;50717;53.360;6.290;2023-05-07T01:10:28;12.00;99.90
64396;DHT22;50717;53.360;6.290;2023-05-07T01:12:57;11.80;99.90
64396;DHT22;50717;53.360;6.290;2023-05-07T01:15:24;12.00;99.90
64396;DHT22;50717;53.360;6.290;2023-05-07T01:17:49;11.10;99.90
64396;DHT22;50717;53.360;6.290;2023-05-07T01:20:15;11.70;99.90
64396;DHT22;50717;53.360;6.290;2023-05-07T01:22:43;11.80;99.90
64396;DHT22;50717;53.360;6.290;2023-05-07T01:25:09;11.30;99.90
64396;DHT22;50717;53.360;6.290;2023-05-07T01:27:35;11.80;99.90
64396;DHT22;50717;53.360;6.290;2023-05-07T01:30:03;10.90;99.90
64396;DHT22;50717;53.360;6.290;2023-05-07T01:32:36;11.20;99.90
64396;DHT22;50717;53.360;6.290;2023-05-07T01:35:05;11.90;99.90
64396;DHT22;50717;53.360;6.290;2023-05-07T01:37:33;11.60;99.90
64396;DHT22;50717;53.360;6.290;2023-05-07T01:39:59;11.50;99.90
64396;DHT22;50717;53.360;6.290;2023-05-07T01:42:25;11.50;99.90
64396;DHT22;50717;53.360;6.290;2023-05-07T01:44:50;11.40;99.90
64396;DHT22;50717;53.360;6.290;2023-05-07T01:47:17;11.80;99.90
64396;DHT22;50717;53.360;6.290;2023-05-07T01:49:42;10.80;99.90
64396;DHT22;50717;53.360;6.290;2023-05-07T01:52:10;11.50;99.90
64396;DHT22;50717;53.360;6.290;2023-05-07T01:54:36;11.30;99.90
64396;DHT22;50717;53.360;6.290;2023-05-07T01:57:02;11.60;99.90
64396;DHT22;50717;53.360;6.290;2023-05-07T01:59:27;11.00;99.90
64396;DHT22;50717;53.360;6.290;2023-05-07T02:01:53;11.00;99.90
64396;DHT22;50717;53.360;6.290;2023-05-07T02:04:19;12.00;99.90
64396;DHT22;50717;53.360;6.290;2023-05-07T02:06:44;11.90;99.90
64396;DHT22;50717;53.360;6.290;2023-05-07T02:09:11;10.90;99.90
64396;DHT22;50717;53.360;6.290;2023-05-07T02:11:36;11.00;99.90
64396;DHT22;50717;53.360;6.290;2023-05-07T02:14:02;10.70;99.90
64396;DHT22;50717;53.360;6.290;2023-05-07T02:16:28;11.60;99.90
64396;DHT22;50717;53.360;6.290;2023-05-07T02:18:53;12.20;99.90
64396;DHT22;50717;53.360;6.290;2023-05-07T02:21:19;11.90;99.90
64396;DHT22;50717;53.360;6.290;2023-05-07T02:23:45;10.70;99.90
64396;DHT22;50717;53.360;6.290;2023-05-07T02:26:11;11.40;99.90
64396;DHT22;50717;53.360;6.290;2023-05-07T02:28:36;11.00;99.90
64396;DHT22;50717;53.360;6.290;2023-05-07T02:31:03;12.20;99.90
64396;DHT22;50717;53.360;6.290;2023-05-07T02:33:28;10.90;99.90
64396;DHT22;50717;53.360;6.290;2023-05-07T02:35:54;10.80;99.90
64396;DHT22;50717;53.360;6.290;2023-05-07T02:38:20;10.50;99.90
64396;DHT22;50717;53.360;6.290;2023-05-07T02:40:46;12.10;99.90
64396;DHT22;50717;53.360;6.290;2023-05-07T02:43:11;10.50;99.90
64396;DHT22;50717;53.360;6.290;2023-05-07T02:45:37;11.60;99.90
64396;DHT22;50717;53.360;6.290;2023-05-07T02:48:03;11.40;99.90
64396;DHT22;50717;53.360;6.290;2023-05-07T02:50:30;11.60;99.90
64396;DHT22;50717;53.360;6.290;2023-05-07T02:52:58;13.50;99.90
64396;DHT22;50717;53.360;6.290;2023-05-07T02:55:24;11.00;99.90
64396;DHT22;50717;53.360;6.290;2023-05-07T02:57:49;12.00;99.90
64396;DHT22;50717;53.360;6.290;2023-05-07T03:00:19;10.50;99.90
64396;DHT22;50717;53.360;6.290;2023-05-07T03:02:45;10.90;99.90
64396;DHT22;50717;53.360;6.290;2023-05-07T03:05:11;11.40;99.90
64396;DHT22;50717;53.360;6.290;2023-05-07T03:07:38;11.70;99.90
64396;DHT22;50717;53.360;6.290;2023-05-07T03:10:04;11.40;99.90
64396;DHT22;50717;53.360;6.290;2023-05-07T03:12:30;10.70;99.90
64396;DHT22;50717;53.360;6.290;2023-05-07T03:14:56;11.60;99.90
64396;DHT22;50717;53.360;6.290;2023-05-07T03:17:22;10.60;99.90
64396;DHT22;50717;53.360;6.290;2023-05-07T03:19:48;10.90;99.90
64396;DHT22;50717;53.360;6.290;2023-05-07T03:22:14;11.80;99.90
64396;DHT22;50717;53.360;6.290;2023-05-07T03:24:39;10.70;99.90
64396;DHT22;50717;53.360;6.290;2023-05-07T03:27:05;12.10;99.90
64396;DHT22;50717;53.360;6.290;2023-05-07T03:29:31;10.90;99.90
64396;DHT22;50717;53.360;6.290;2023-05-07T03:31:56;11.00;99.90
64396;DHT22;50717;53.360;6.290;2023-05-07T03:34:22;10.40;99.90
64396;DHT22;50717;53.360;6.290;2023-05-07T03:36:48;11.50;99.90
64396;DHT22;50717;53.360;6.290;2023-05-07T03:39:14;11.60;99.90
64396;DHT22;50717;53.360;6.290;2023-05-07T03:41:40;11.50;99.90
64396;DHT22;50717;53.360;6.290;2023-05-07T03:44:06;10.20;99.90
64396;DHT22;50717;53.360;6.290;2023-05-07T03:46:31;11.20;99.90
64396;DHT22;50717;53.360;6.290;2023-05-07T03:48:58;11.40;99.90
64396;DHT22;50717;53.360;6.290;2023-05-07T03:51:24;11.60;99.90
64396;DHT22;50717;53.360;6.290;2023-05-07T03:53:50;10.30;99.90
64396;DHT22;50717;53.360;6.290;2023-05-07T03:56:18;10.40;99.90
64396;DHT22;50717;53.360;6.290;2023-05-07T03:58:44;11.10;99.90
64396;DHT22;50717;53.360;6.290;2023-05-07T04:01:10;11.10;99.90
64396;DHT22;50717;53.360;6.290;2023-05-07T04:03:36;11.80;99.90
64396;DHT22;50717;53.360;6.290;2023-05-07T04:06:02;10.80;99.90
64396;DHT22;50717;53.360;6.290;2023-05-07T04:08:28;12.00;99.90
64396;DHT22;50717;53.360;6.290;2023-05-07T04:10:57;10.10;99.90
64396;DHT22;50717;53.360;6.290;2023-05-07T04:13:23;10.60;99.90
64396;DHT22;50717;53.360;6.290;2023-05-07T04:15:49;10.60;99.90
64396;DHT22;50717;53.360;6.290;2023-05-07T04:18:15;11.40;99.90
64396;DHT22;50717;53.360;6.290;2023-05-07T04:20:41;10.40;99.90
64396;DHT22;50717;53.360;6.290;2023-05-07T04:23:07;11.10;99.90
64396;DHT22;50717;53.360;6.290;2023-05-07T04:25:33;10.60;99.90
64396;DHT22;50717;53.360;6.290;2023-05-07T04:27:59;10.40;99.90
64396;DHT22;50717;53.360;6.290;2023-05-07T04:30:25;10.60;99.90
64396;DHT22;50717;53.360;6.290;2023-05-07T04:32:51;11.90;99.90
64396;DHT22;50717;53.360;6.290;2023-05-07T04:35:16;11.50;99.90
64396;DHT22;50717;53.360;6.290;2023-05-07T04:37:42;10.20;99.90
64396;DHT22;50717;53.360;6.290;2023-05-07T04:40:08;11.40;99.90
64396;DHT22;50717;53.360;6.290;2023-05-07T04:42:34;10.10;99.90
64396;DHT22;50717;53.360;6.290;2023-05-07T04:45:01;10.90;99.90
64396;DHT22;50717;53.360;6.290;2023-05-07T04:47:27;11.10;99.90
64396;DHT22;50717;53.360;6.290;2023-05-07T04:49:52;10.40;99.90
64396;DHT22;50717;53.360;6.290;2023-05-07T04:52:18;11.30;99.90
64396;DHT22;50717;53.360;6.290;2023-05-07T04:54:44;11.20;99.90
64396;DHT22;50717;53.360;6.290;2023-05-07T04:57:10;11.30;99.90
64396;DHT22;50717;53.360;6.290;2023-05-07T04:59:35;10.90;99.90
64396;DHT22;50717;53.360;6.290;2023-05-07T05:02:01;10.30;99.90
64396;DHT22;50717;53.360;6.290;2023-05-07T05:04:27;10.90;99.90
64396;DHT22;50717;53.360;6.290;2023-05-07T05:06:52;11.70;99.90
64396;DHT22;50717;53.360;6.290;2023-05-07T05:09:18;11.40;99.90
64396;DHT22;50717;53.360;6.290;2023-05-07T05:11:47;11.40;99.90
64396;DHT22;50717;53.360;6.290;2023-05-07T05:14:12;11.10;99.90
64396;DHT22;50717;53.360;6.290;2023-05-07T05:16:38;10.20;99.90
64396;DHT22;50717;53.360;6.290;2023-05-07T05:19:04;11.20;99.90
64396;DHT22;50717;53.360;6.290;2023-05-07T05:21:30;11.20;99.90
64396;DHT22;50717;53.360;6.290;2023-05-07T05:23:56;9.70;99.90
64396;DHT22;50717;53.360;6.290;2023-05-07T05:26:21;10.00;99.90
64396;DHT22;50717;53.360;6.290;2023-05-07T05:28:47;10.40;99.90
64396;DHT22;50717;53.360;6.290;2023-05-07T05:31:13;10.10;99.90
64396;DHT22;50717;53.360;6.290;2023-05-07T05:33:39;10.80;99.90
64396;DHT22;50717;53.360;6.290;2023-05-07T05:36:05;11.50;99.90
64396;DHT22;50717;53.360;6.290;2023-05-07T05:38:32;10.20;99.90
64396;DHT22;50717;53.360;6.290;2023-05-07T05:40:57;10.30;99.90
64396;DHT22;50717;53.360;6.290;2023-05-07T05:43:23;10.80;99.90
64396;DHT22;50717;53.360;6.290;2023-05-07T05:45:49;11.50;99.90
64396;DHT22;50717;53.360;6.290;2023-05-07T05:48:14;10.60;99.90
64396;DHT22;50717;53.360;6.290;2023-05-07T05:50:42;10.10;99.90
64396;DHT22;50717;53.360;6.290;2023-05-07T05:53:07;11.40;99.90
64396;DHT22;50717;53.360;6.290;2023-05-07T05:55:33;11.40;99.90
64396;DHT22;50717;53.360;6.290;2023-05-07T05:58:00;10.10;99.90
64396;DHT22;50717;53.360;6.290;2023-05-07T06:00:26;10.40;99.90
64396;DHT22;50717;53.360;6.290;2023-05-07T06:02:52;10.70;99.90
64396;DHT22;50717;53.360;6.290;2023-05-07T06:05:18;11.00;99.90
64396;DHT22;50717;53.360;6.290;2023-05-07T06:07:43;11.20;99.90
64396;DHT22;50717;53.360;6.290;2023-05-07T06:10:09;10.30;99.90
64396;DHT22;50717;53.360;6.290;2023-05-07T06:12:35;10.50;99.90
64396;DHT22;50717;53.360;6.290;2023-05-07T06:15:01;10.90;99.90
64396;DHT22;50717;53.360;6.290;2023-05-07T06:17:27;11.70;99.90
64396;DHT22;50717;53.360;6.290;2023-05-07T06:19:52;10.40;99.90
64396;DHT22;50717;53.360;6.290;2023-05-07T06:22:18;10.40;99.90
64396;DHT22;50717;53.360;6.290;2023-05-07T06:24:44;12.70;99.90
64396;DHT22;50717;53.360;6.290;2023-05-07T06:27:10;11.30;99.90
64396;DHT22;50717;53.360;6.290;2023-05-07T06:29:36;10.40;99.90
64396;DHT22;50717;53.360;6.290;2023-05-07T06:32:12;10.10;99.90
64396;DHT22;50717;53.360;6.290;2023-05-07T06:34:38;11.30;99.90
64396;DHT22;50717;53.360;6.290;2023-05-07T06:37:04;10.20;99.90
64396;DHT22;50717;53.360;6.290;2023-05-07T06:39:30;10.20;99.90
64396;DHT22;50717;53.360;6.290;2023-05-07T06:41:56;11.50;99.90
64396;DHT22;50717;53.360;6.290;2023-05-07T06:44:22;11.50;99.90
64396;DHT22;50717;53.360;6.290;2023-05-07T06:46:47;11.50;99.90
64396;DHT22;50717;53.360;6.290;2023-05-07T06:49:13;10.50;99.90
64396;DHT22;50717;53.360;6.290;2023-05-07T06:51:39;10.90;99.90
64396;DHT22;50717;53.360;6.290;2023-05-07T06:54:05;10.50;99.90
64396;DHT22;50717;53.360;6.290;2023-05-07T06:56:31;11.20;99.90
64396;DHT22;50717;53.360;6.290;2023-05-07T06:58:57;11.40;99.90
64396;DHT22;50717;53.360;6.290;2023-05-07T07:01:23;11.50;99.90
64396;DHT22;50717;53.360;6.290;2023-05-07T07:03:49;11.20;99.90
64396;DHT22;50717;53.360;6.290;2023-05-07T07:06:16;10.50;99.90
64396;DHT22;50717;53.360;6.290;2023-05-07T07:08:42;11.50;99.90
64396;DHT22;50717;53.360;6.290;2023-05-07T07:11:08;11.50;99.90
64396;DHT22;50717;53.360;6.290;2023-05-07T07:13:34;11.30;99.90
64396;DHT22;50717;53.360;6.290;2023-05-07T07:16:00;10.40;99.90
64396;DHT22;50717;53.360;6.290;2023-05-07T07:18:25;10.70;99.90
64396;DHT22;50717;53.360;6.290;2023-05-07T07:20:51;11.40;99.90
64396;DHT22;50717;53.360;6.290;2023-05-07T07:23:17;11.30;99.90
64396;DHT22;50717;53.360;6.290;2023-05-07T07:25:43;11.50;99.90
64396;DHT22;50717;53.360;6.290;2023-05-07T07:28:09;11.20;99.90
64396;DHT22;50717;53.360;6.290;2023-05-07T07:30:36;11.20;99.90
64396;DHT22;50717;53.360;6.290;2023-05-07T07:33:02;11.50;99.90
64396;DHT22;50717;53.360;6.290;2023-05-07T07:35:29;10.70;99.90
64396;DHT22;50717;53.360;6.290;2023-05-07T07:37:55;11.30;99.90
64396;DHT22;50717;53.360;6.290;2023-05-07T07:40:21;10.50;99.90
64396;DHT22;50717;53.360;6.290;2023-05-07T07:42:47;11.50;99.90
64396;DHT22;50717;53.360;6.290;2023-05-07T07:45:12;11.50;99.90
64396;DHT22;50717;53.360;6.290;2023-05-07T07:47:39;11.20;99.90
64396;DHT22;50717;53.360;6.290;2023-05-07T07:50:06;10.70;99.90
64396;DHT22;50717;53.360;6.290;2023-05-07T07:52:32;11.30;99.90
64396;DHT22;50717;53.360;6.290;2023-05-07T07:54:58;10.60;99.90
64396;DHT22;50717;53.360;6.290;2023-05-07T07:57:24;11.50;99.90
64396;DHT22;50717;53.360;6.290;2023-05-07T07:59:50;11.20;99.90
64396;DHT22;50717;53.360;6.290;2023-05-07T08:02:16;11.00;99.90
64396;DHT22;50717;53.360;6.290;2023-05-07T08:04:42;11.50;99.90
64396;DHT22;50717;53.360;6.290;2023-05-07T08:07:09;11.50;99.90
64396;DHT22;50717;53.360;6.290;2023-05-07T08:09:36;11.40;99.90
64396;DHT22;50717;53.360;6.290;2023-05-07T08:12:02;10.90;99.90
64396;DHT22;50717;53.360;6.290;2023-05-07T08:14:28;11.40;99.90
64396;DHT22;50717;53.360;6.290;2023-05-07T08:16:54;11.80;99.90
64396;DHT22;50717;53.360;6.290;2023-05-07T08:19:20;11.30;99.90
64396;DHT22;50717;53.360;6.290;2023-05-07T08:21:47;11.70;99.90
64396;DHT22;50717;53.360;6.290;2023-05-07T08:24:16;11.80;99.90
64396;DHT22;50717;53.360;6.290;2023-05-07T08:26:42;10.90;99.90
64396;DHT22;50717;53.360;6.290;2023-05-07T08:29:08;11.50;99.90
64396;DHT22;50717;53.360;6.290;2023-05-07T08:31:33;11.90;99.90
64396;DHT22;50717;53.360;6.290;2023-05-07T08:33:59;11.90;99.90
64396;DHT22;50717;53.360;6.290;2023-05-07T08:36:25;11.60;99.90
64396;DHT22;50717;53.360;6.290;2023-05-07T08:38:52;12.10;99.90
64396;DHT22;50717;53.360;6.290;2023-05-07T08:41:18;12.00;99.90
64396;DHT22;50717;53.360;6.290;2023-05-07T08:43:49;11.70;99.90
64396;DHT22;50717;53.360;6.290;2023-05-07T08:46:22;12.00;99.90
64396;DHT22;50717;53.360;6.290;2023-05-07T08:48:48;11.90;99.90
64396;DHT22;50717;53.360;6.290;2023-05-07T08:51:17;11.70;99.90
64396;DHT22;50717;53.360;6.290;2023-05-07T08:53:44;12.00;99.90
64396;DHT22;50717;53.360;6.290;2023-05-07T08:56:10;12.20;99.90
64396;DHT22;50717;53.360;6.290;2023-05-07T08:58:36;11.70;99.90
64396;DHT22;50717;53.360;6.290;2023-05-07T09:01:08;12.40;99.90
64396;DHT22;50717;53.360;6.290;2023-05-07T09:03:36;12.30;99.90
64396;DHT22;50717;53.360;6.290;2023-05-07T09:06:01;12.60;99.90
64396;DHT22;50717;53.360;6.290;2023-05-07T09:08:27;12.40;99.90
64396;DHT22;50717;53.360;6.290;2023-05-07T09:10:53;12.90;99.90
64396;DHT22;50717;53.360;6.290;2023-05-07T09:13:19;12.70;99.90
64396;DHT22;50717;53.360;6.290;2023-05-07T09:15:45;13.30;99.90
64396;DHT22;50717;53.360;6.290;2023-05-07T09:18:12;12.70;99.90
64396;DHT22;50717;53.360;6.290;2023-05-07T09:20:38;13.30;99.90
64396;DHT22;50717;53.360;6.290;2023-05-07T09:23:05;13.00;99.90
64396;DHT22;50717;53.360;6.290;2023-05-07T09:25:33;13.10;99.90
64396;DHT22;50717;53.360;6.290;2023-05-07T09:28:04;13.50;99.90
64396;DHT22;50717;53.360;6.290;2023-05-07T09:30:31;14.00;99.90
64396;DHT22;50717;53.360;6.290;2023-05-07T09:32:58;14.40;99.90
64396;DHT22;50717;53.360;6.290;2023-05-07T09:35:25;14.00;99.90
64396;DHT22;50717;53.360;6.290;2023-05-07T09:37:56;14.30;99.90
64396;DHT22;50717;53.360;6.290;2023-05-07T09:40:27;14.40;99.90
64396;DHT22;50717;53.360;6.290;2023-05-07T09:42:53;14.60;99.90
64396;DHT22;50717;53.360;6.290;2023-05-07T09:45:25;14.30;99.90
64396;DHT22;50717;53.360;6.290;2023-05-07T09:47:57;14.60;99.90
64396;DHT22;50717;53.360;6.290;2023-05-07T09:50:29;15.10;99.90
64396;DHT22;50717;53.360;6.290;2023-05-07T09:52:56;15.00;99.90
64396;DHT22;50717;53.360;6.290;2023-05-07T09:55:22;15.10;99.90
64396;DHT22;50717;53.360;6.290;2023-05-07T09:57:53;14.80;99.90
64396;DHT22;50717;53.360;6.290;2023-05-07T10:00:20;15.40;99.90
64396;DHT22;50717;53.360;6.290;2023-05-07T10:02:48;14.90;99.90
64396;DHT22;50717;53.360;6.290;2023-05-07T10:05:15;15.40;99.90
64396;DHT22;50717;53.360;6.290;2023-05-07T10:07:42;15.10;99.90
64396;DHT22;50717;53.360;6.290;2023-05-07T10:10:09;15.40;99.90
64396;DHT22;50717;53.360;6.290;2023-05-07T10:12:34;15.70;99.90
64396;DHT22;50717;53.360;6.290;2023-05-07T10:15:11;15.80;99.90
64396;DHT22;50717;53.360;6.290;2023-05-07T10:17:39;15.50;99.90
64396;DHT22;50717;53.360;6.290;2023-05-07T10:20:05;16.00;99.90
64396;DHT22;50717;53.360;6.290;2023-05-07T10:22:43;15.70;99.90
64396;DHT22;50717;53.360;6.290;2023-05-07T10:27:42;16.20;99.90
64396;DHT22;50717;53.360;6.290;2023-05-07T10:30:32;15.70;99.90
64396;DHT22;50717;53.360;6.290;2023-05-07T10:33:03;16.10;99.90
64396;DHT22;50717;53.360;6.290;2023-05-07T10:35:36;16.00;99.90
64396;DHT22;50717;53.360;6.290;2023-05-07T10:38:03;16.00;99.90
64396;DHT22;50717;53.360;6.290;2023-05-07T10:40:31;16.00;99.90
64396;DHT22;50717;53.360;6.290;2023-05-07T10:43:04;16.20;99.90
64396;DHT22;50717;53.360;6.290;2023-05-07T10:45:31;16.40;99.90
64396;DHT22;50717;53.360;6.290;2023-05-07T10:48:15;16.40;99.90
64396;DHT22;50717;53.360;6.290;2023-05-07T10:50:44;16.30;99.90
64396;DHT22;50717;53.360;6.290;2023-05-07T10:55:44;16.10;99.90
64396;DHT22;50717;53.360;6.290;2023-05-07T11:00:50;15.80;99.90
64396;DHT22;50717;53.360;6.290;2023-05-07T11:03:17;16.60;99.90
64396;DHT22;50717;53.360;6.290;2023-05-07T11:05:42;16.20;99.90
64396;DHT22;50717;53.360;6.290;2023-05-07T11:08:09;16.00;99.90
64396;DHT22;50717;53.360;6.290;2023-05-07T11:10:56;16.50;99.90
64396;DHT22;50717;53.360;6.290;2023-05-07T11:13:41;16.70;99.90
64396;DHT22;50717;53.360;6.290;2023-05-07T11:16:17;17.00;99.90
64396;DHT22;50717;53.360;6.290;2023-05-07T11:18:49;16.90;99.90
64396;DHT22;50717;53.360;6.290;2023-05-07T11:21:38;16.30;99.90
64396;DHT22;50717;53.360;6.290;2023-05-07T11:24:09;16.70;99.90
64396;DHT22;50717;53.360;6.290;2023-05-07T11:26:51;17.00;99.90
64396;DHT22;50717;53.360;6.290;2023-05-07T11:29:18;17.20;99.90
64396;DHT22;50717;53.360;6.290;2023-05-07T11:31:49;17.00;99.90
64396;DHT22;50717;53.360;6.290;2023-05-07T11:34:15;17.00;99.90
64396;DHT22;50717;53.360;6.290;2023-05-07T11:36:46;17.10;99.90
64396;DHT22;50717;53.360;6.290;2023-05-07T11:39:28;17.60;99.90
64396;DHT22;50717;53.360;6.290;2023-05-07T11:41:54;17.70;99.90
64396;DHT22;50717;53.360;6.290;2023-05-07T11:44:20;17.50;99.90
64396;DHT22;50717;53.360;6.290;2023-05-07T11:46:46;19.70;99.90
64396;DHT22;50717;53.360;6.290;2023-05-07T11:49:12;17.90;99.90
64396;DHT22;50717;53.360;6.290;2023-05-07T11:51:38;17.80;99.90
64396;DHT22;50717;53.360;6.290;2023-05-07T11:54:04;17.70;99.90
64396;DHT22;50717;53.360;6.290;2023-05-07T11:56:34;17.20;99.90
64396;DHT22;50717;53.360;6.290;2023-05-07T11:59:01;18.00;99.90
64396;DHT22;50717;53.360;6.290;2023-05-07T12:01:27;18.10;99.90
64396;DHT22;50717;53.360;6.290;2023-05-07T12:03:52;17.80;99.90
64396;DHT22;50717;53.360;6.290;2023-05-07T12:06:18;18.10;99.90
64396;DHT22;50717;53.360;6.290;2023-05-07T12:08:45;18.10;99.90
64396;DHT22;50717;53.360;6.290;2023-05-07T12:11:16;18.10;99.90
64396;DHT22;50717;53.360;6.290;2023-05-07T12:13:43;18.30;99.90
64396;DHT22;50717;53.360;6.290;2023-05-07T12:16:09;18.00;99.90
64396;DHT22;50717;53.360;6.290;2023-05-07T12:18:36;18.20;99.90
64396;DHT22;50717;53.360;6.290;2023-05-07T12:21:04;18.10;99.90
64396;DHT22;50717;53.360;6.290;2023-05-07T12:23:30;18.00;99.90
64396;DHT22;50717;53.360;6.290;2023-05-07T12:25:56;18.30;99.90
64396;DHT22;50717;53.360;6.290;2023-05-07T12:28:22;18.50;99.90
64396;DHT22;50717;53.360;6.290;2023-05-07T12:30:49;18.60;99.90
64396;DHT22;50717;53.360;6.290;2023-05-07T12:33:19;18.90;99.90
64396;DHT22;50717;53.360;6.290;2023-05-07T12:35:48;19.00;99.90
64396;DHT22;50717;53.360;6.290;2023-05-07T12:38:15;18.90;99.90
64396;DHT22;50717;53.360;6.290;2023-05-07T12:40:44;19.00;99.90
64396;DHT22;50717;53.360;6.290;2023-05-07T12:43:21;18.80;99.90
64396;DHT22;50717;53.360;6.290;2023-05-07T12:45:49;19.00;99.90
64396;DHT22;50717;53.360;6.290;2023-05-07T12:48:16;19.20;99.90
64396;DHT22;50717;53.360;6.290;2023-05-07T12:50:42;19.20;99.90
64396;DHT22;50717;53.360;6.290;2023-05-07T12:53:10;18.60;99.90
64396;DHT22;50717;53.360;6.290;2023-05-07T12:55:49;19.10;99.90
64396;DHT22;50717;53.360;6.290;2023-05-07T12:58:29;19.10;99.90
64396;DHT22;50717;53.360;6.290;2023-05-07T13:00:58;19.50;99.90
64396;DHT22;50717;53.360;6.290;2023-05-07T13:03:33;19.10;99.90
64396;DHT22;50717;53.360;6.290;2023-05-07T13:06:01;19.10;99.90
64396;DHT22;50717;53.360;6.290;2023-05-07T13:11:01;18.90;99.90
64396;DHT22;50717;53.360;6.290;2023-05-07T13:13:34;19.30;99.90
64396;DHT22;50717;53.360;6.290;2023-05-07T13:16:01;18.90;99.90
64396;DHT22;50717;53.360;6.290;2023-05-07T13:18:28;19.20;99.90
64396;DHT22;50717;53.360;6.290;2023-05-07T13:20:54;19.10;99.90
64396;DHT22;50717;53.360;6.290;2023-05-07T13:23:21;19.30;99.90
64396;DHT22;50717;53.360;6.290;2023-05-07T13:25:47;18.80;99.90
64396;DHT22;50717;53.360;6.290;2023-05-07T13:28:13;19.00;99.90
64396;DHT22;50717;53.360;6.290;2023-05-07T13:30:39;19.10;99.90
64396;DHT22;50717;53.360;6.290;2023-05-07T13:33:06;19.20;99.90
64396;DHT22;50717;53.360;6.290;2023-05-07T13:35:32;19.40;99.90
64396;DHT22;50717;53.360;6.290;2023-05-07T13:37:58;19.00;99.90
64396;DHT22;50717;53.360;6.290;2023-05-07T13:40:24;19.40;99.90
64396;DHT22;50717;53.360;6.290;2023-05-07T13:42:50;19.50;99.90
64396;DHT22;50717;53.360;6.290;2023-05-07T13:45:17;19.70;99.90
64396;DHT22;50717;53.360;6.290;2023-05-07T13:47:43;20.30;99.90
64396;DHT22;50717;53.360;6.290;2023-05-07T13:50:10;20.40;99.90
64396;DHT22;50717;53.360;6.290;2023-05-07T13:52:37;20.30;99.90
64396;DHT22;50717;53.360;6.290;2023-05-07T13:55:03;20.80;99.90
64396;DHT22;50717;53.360;6.290;2023-05-07T13:57:29;20.80;99.90
64396;DHT22;50717;53.360;6.290;2023-05-07T13:59:55;20.50;99.90
64396;DHT22;50717;53.360;6.290;2023-05-07T14:02:21;20.60;99.90
64396;DHT22;50717;53.360;6.290;2023-05-07T14:04:46;20.30;99.90
64396;DHT22;50717;53.360;6.290;2023-05-07T14:07:12;20.30;99.90
64396;DHT22;50717;53.360;6.290;2023-05-07T14:09:38;20.90;99.90
64396;DHT22;50717;53.360;6.290;2023-05-07T14:12:04;21.00;99.90
64396;DHT22;50717;53.360;6.290;2023-05-07T14:14:30;21.20;99.90
64396;DHT22;50717;53.360;6.290;2023-05-07T14:16:55;20.60;99.90
64396;DHT22;50717;53.360;6.290;2023-05-07T14:19:21;20.80;99.90
64396;DHT22;50717;53.360;6.290;2023-05-07T14:21:48;20.70;99.90
64396;DHT22;50717;53.360;6.290;2023-05-07T14:24:14;21.20;99.90
64396;DHT22;50717;53.360;6.290;2023-05-07T14:26:40;21.50;99.90
64396;DHT22;50717;53.360;6.290;2023-05-07T14:29:06;21.40;99.90
64396;DHT22;50717;53.360;6.290;2023-05-07T14:31:31;21.80;99.90
64396;DHT22;50717;53.360;6.290;2023-05-07T14:33:58;22.00;99.90
64396;DHT22;50717;53.360;6.290;2023-05-07T14:36:24;22.00;99.90
64396;DHT22;50717;53.360;6.290;2023-05-07T14:38:52;22.30;99.90
64396;DHT22;50717;53.360;6.290;2023-05-07T14:41:22;22.70;99.90
64396;DHT22;50717;53.360;6.290;2023-05-07T14:43:48;22.90;99.90
64396;DHT22;50717;53.360;6.290;2023-05-07T14:46:18;22.90;99.90
64396;DHT22;50717;53.360;6.290;2023-05-07T14:48:45;22.80;99.90
64396;DHT22;50717;53.360;6.290;2023-05-07T14:51:14;22.70;99.90
64396;DHT22;50717;53.360;6.290;2023-05-07T14:53:43;23.00;99.90
64396;DHT22;50717;53.360;6.290;2023-05-07T14:56:09;22.50;99.90
64396;DHT22;50717;53.360;6.290;2023-05-07T14:58:34;22.50;99.90
64396;DHT22;50717;53.360;6.290;2023-05-07T15:01:00;22.10;99.90
64396;DHT22;50717;53.360;6.290;2023-05-07T15:03:27;22.10;99.90
64396;DHT22;50717;53.360;6.290;2023-05-07T15:05:52;22.30;99.90
64396;DHT22;50717;53.360;6.290;2023-05-07T15:08:18;23.10;99.90
64396;DHT22;50717;53.360;6.290;2023-05-07T15:10:44;23.20;99.90
64396;DHT22;50717;53.360;6.290;2023-05-07T15:13:11;23.10;99.90
64396;DHT22;50717;53.360;6.290;2023-05-07T15:15:38;22.70;99.90
64396;DHT22;50717;53.360;6.290;2023-05-07T15:18:04;22.60;99.90
64396;DHT22;50717;53.360;6.290;2023-05-07T15:20:30;22.80;99.90
64396;DHT22;50717;53.360;6.290;2023-05-07T15:22:56;22.20;99.90
64396;DHT22;50717;53.360;6.290;2023-05-07T15:25:22;22.10;99.90
64396;DHT22;50717;53.360;6.290;2023-05-07T15:27:48;21.60;99.90
64396;DHT22;50717;53.360;6.290;2023-05-07T15:30:14;21.50;99.90
64396;DHT22;50717;53.360;6.290;2023-05-07T15:32:43;21.40;99.90
64396;DHT22;50717;53.360;6.290;2023-05-07T15:35:09;21.50;99.90
64396;DHT22;50717;53.360;6.290;2023-05-07T15:37:35;21.40;99.90
64396;DHT22;50717;53.360;6.290;2023-05-07T15:40:01;21.70;99.90